createdAt,value
2019-01-22T00:02:16.941Z,21.70
2019-01-22T00:04:45.585Z,20.77
2019-01-22T00:07:14.136Z,20.03
2019-01-22T00:09:43.008Z,20.70
2019-01-22T00:12:11.550Z,21.20
2019-01-22T00:14:40.125Z,20.63
2019-01-22T00:17:08.665Z,20.33
2019-01-22T00:19:37.283Z,20.63
2019-01-22T00:22:06.101Z,20.67
2019-01-22T00:24:34.664Z,19.13
2019-01-22T00:27:03.230Z,19.43
2019-01-22T00:29:31.777Z,18.50
2019-01-22T00:32:00.347Z,17.40
2019-01-22T00:34:28.889Z,22.77
2019-01-22T00:36:57.462Z,21.03
2019-01-22T00:39:26.014Z,19.33
2019-01-22T00:41:54.589Z,19.50
2019-01-22T00:44:23.139Z,18.60
2019-01-22T00:46:51.703Z,20.03
2019-01-22T00:49:20.256Z,18.03
2019-01-22T00:51:49.126Z,19.80
2019-01-22T00:54:17.676Z,19.40
2019-01-22T00:56:46.248Z,20.43
2019-01-22T00:59:14.797Z,19.40
2019-01-22T01:01:43.614Z,17.60
2019-01-22T01:04:12.185Z,19.63
2019-01-22T01:06:40.866Z,19.87
2019-01-22T01:09:09.479Z,21.00
2019-01-22T01:11:38.048Z,18.93
2019-01-22T01:14:06.773Z,17.47
2019-01-22T01:16:35.333Z,20.40
2019-01-22T01:19:04.781Z,19.77
2019-01-22T01:21:33.350Z,18.77
2019-01-22T01:24:01.900Z,17.37
2019-01-22T01:26:30.470Z,19.90
2019-01-22T01:28:59.027Z,18.27
2019-01-22T01:31:27.602Z,19.13
2019-01-22T01:33:56.152Z,18.73
2019-01-22T01:36:24.725Z,18.10
2019-01-22T01:38:53.270Z,19.70
2019-01-22T01:41:21.837Z,20.20
2019-01-22T01:43:50.387Z,16.83
2019-01-22T01:46:18.958Z,19.10
2019-01-22T01:48:47.502Z,18.20
2019-01-22T01:51:16.073Z,17.97
2019-01-22T01:53:44.627Z,19.93
2019-01-22T01:56:13.201Z,18.07
2019-01-22T01:58:41.746Z,16.47
2019-01-22T02:01:10.320Z,17.80
2019-01-22T02:03:39.165Z,14.73
2019-01-22T02:06:07.740Z,19.30
2019-01-22T02:08:36.298Z,17.13
2019-01-22T02:11:04.870Z,18.10
2019-01-22T02:13:33.423Z,16.90
2019-01-22T02:16:05.065Z,18.40
2019-01-22T02:18:45.398Z,19.97
2019-01-22T02:21:36.046Z,20.30
2019-01-22T02:24:13.420Z,18.17
2019-01-22T02:27:02.941Z,18.33
2019-01-22T02:29:40.411Z,19.80
2019-01-22T02:32:17.909Z,17.43
2019-01-22T02:34:49.539Z,16.20
2019-01-22T02:37:50.979Z,20.17
2019-01-22T02:40:28.162Z,18.00
2019-01-22T02:42:59.808Z,18.27
2019-01-22T02:45:33.895Z,18.37
2019-01-22T02:48:05.786Z,16.23
2019-01-22T02:50:43.127Z,18.07
2019-01-22T02:53:14.779Z,18.50
2019-01-22T02:55:48.961Z,15.47
2019-01-22T02:58:53.760Z,15.90
2019-01-22T03:01:43.411Z,17.33
2019-01-22T03:04:17.598Z,18.63
2019-01-22T03:06:57.785Z,16.73
2019-01-22T03:09:50.318Z,18.40
2019-01-22T03:12:24.756Z,19.00
2019-01-22T03:15:10.966Z,15.23
2019-01-22T03:17:45.303Z,16.07
2019-01-22T03:20:19.935Z,18.70
2019-01-22T03:22:54.278Z,16.00
2019-01-22T03:25:31.803Z,17.50
2019-01-22T03:28:15.470Z,18.97
2019-01-22T03:30:55.907Z,19.17
2019-01-22T03:33:33.371Z,18.90
2019-01-22T03:36:10.913Z,17.80
2019-01-22T03:38:48.402Z,16.87
2019-01-22T03:41:38.087Z,16.83
2019-01-22T03:44:24.661Z,15.20
2019-01-22T03:46:56.278Z,17.33
2019-01-22T03:49:30.955Z,16.43
2019-01-22T03:52:08.042Z,15.70
2019-01-22T03:54:51.349Z,18.57
2019-01-22T03:57:26.097Z,17.13
2019-01-22T03:59:54.678Z,16.50
2019-01-22T04:02:24.361Z,16.67
2019-01-22T04:04:52.938Z,20.57
2019-01-22T04:07:21.477Z,17.57
2019-01-22T04:09:50.528Z,21.70
2019-01-22T04:12:19.102Z,18.40
2019-01-22T04:14:47.677Z,20.50
2019-01-22T04:17:16.227Z,16.73
2019-01-22T04:19:44.794Z,17.40
2019-01-22T04:22:15.483Z,18.17
2019-01-22T04:24:50.022Z,17.57
2019-01-22T04:27:33.213Z,15.93
2019-01-22T04:30:19.693Z,19.57
2019-01-22T04:33:03.070Z,16.07
2019-01-22T04:35:46.512Z,15.23
2019-01-22T04:38:23.949Z,18.13
2019-01-22T04:41:16.566Z,15.70
2019-01-22T04:43:51.173Z,16.63
2019-01-22T04:46:37.695Z,18.03
2019-01-22T04:49:15.293Z,16.40
2019-01-22T04:51:55.559Z,18.87
2019-01-22T04:54:33.067Z,18.27
2019-01-22T04:57:07.343Z,19.17
2019-01-22T04:59:44.722Z,18.30
2019-01-22T05:02:30.939Z,20.80
2019-01-22T05:05:05.355Z,17.40
2019-01-22T05:07:42.734Z,14.70
2019-01-22T05:10:30.806Z,16.33
2019-01-22T05:13:11.748Z,19.53
2019-01-22T05:15:49.346Z,19.50
2019-01-22T05:18:32.810Z,18.80
2019-01-22T05:21:22.531Z,19.43
2019-01-22T05:24:25.628Z,18.27
2019-01-22T05:27:22.750Z,18.60
2019-01-22T05:30:16.754Z,19.90
2019-01-22T05:33:03.203Z,21.40
2019-01-22T05:35:52.224Z,18.43
2019-01-22T05:38:41.798Z,20.03
2019-01-22T05:41:15.979Z,18.07
2019-01-22T05:43:59.502Z,20.97
2019-01-22T05:46:33.870Z,21.93
2019-01-22T05:49:21.771Z,23.80
2019-01-22T05:51:56.123Z,19.90
2019-01-22T05:54:37.351Z,19.43
2019-01-22T05:57:09.259Z,18.17
2019-01-22T06:00:00.439Z,20.93
2019-01-22T06:02:32.497Z,19.43
2019-01-22T06:05:04.398Z,16.53
2019-01-22T06:07:47.540Z,19.13
2019-01-22T06:10:19.213Z,19.87
2019-01-22T06:12:56.482Z,18.17
2019-01-22T06:15:34.063Z,17.17
2019-01-22T06:18:05.698Z,17.50
2019-01-22T06:20:53.862Z,16.90
2019-01-22T06:23:50.634Z,14.80
2019-01-22T06:26:27.793Z,16.27
2019-01-22T06:29:17.263Z,16.57
2019-01-22T06:32:00.798Z,15.90
2019-01-22T06:34:35.310Z,16.40
2019-01-22T06:37:12.295Z,18.30
2019-01-22T06:39:43.921Z,18.77
2019-01-22T06:42:36.238Z,17.87
2019-01-22T06:45:30.099Z,14.00
2019-01-22T06:48:18.078Z,14.73
2019-01-22T06:51:13.502Z,18.70
2019-01-22T06:54:17.903Z,18.53
2019-01-22T06:57:06.220Z,18.27
2019-01-22T07:00:09.514Z,15.53
2019-01-22T07:02:52.926Z,20.23
2019-01-22T07:05:35.954Z,18.20
2019-01-22T07:08:16.594Z,17.70
2019-01-22T07:10:51.057Z,14.77
2019-01-22T07:13:22.697Z,18.33
2019-01-22T07:16:19.796Z,18.80
2019-01-22T07:18:54.138Z,15.73
2019-01-22T07:21:46.794Z,18.97
2019-01-22T07:24:27.274Z,20.27
2019-01-22T07:27:16.796Z,23.70
2019-01-22T07:30:20.015Z,29.07
2019-01-22T07:33:06.453Z,19.00
2019-01-22T07:35:46.798Z,19.30
2019-01-22T07:38:18.435Z,18.33
2019-01-22T07:40:52.574Z,18.60
2019-01-22T07:43:29.662Z,16.43
2019-01-22T07:46:22.110Z,17.40
2019-01-22T07:48:56.864Z,16.37
2019-01-22T07:51:46.089Z,15.97
2019-01-22T07:54:23.574Z,18.60
2019-01-22T07:57:06.769Z,16.70
2019-01-22T07:59:47.302Z,17.70
2019-01-22T08:02:24.377Z,18.40
2019-01-22T08:05:01.151Z,18.70
2019-01-22T08:07:52.474Z,15.87
2019-01-22T08:10:30.138Z,18.70
2019-01-22T08:13:10.331Z,18.67
2019-01-22T08:15:56.834Z,18.90
2019-01-22T08:18:43.278Z,17.20
2019-01-22T08:21:23.038Z,21.47
2019-01-22T08:24:00.171Z,16.13
2019-01-22T08:26:43.647Z,14.53
2019-01-22T08:29:18.054Z,17.73
2019-01-22T08:32:04.393Z,18.27
2019-01-22T08:34:56.877Z,18.10
2019-01-22T08:37:31.390Z,17.73
2019-01-22T08:40:23.489Z,18.27
2019-01-22T08:43:00.898Z,15.27
2019-01-22T08:45:55.328Z,18.40
2019-01-22T08:48:44.638Z,17.40
2019-01-22T08:51:31.152Z,15.47
2019-01-22T08:54:05.319Z,17.30
2019-01-22T08:56:37.014Z,17.87
2019-01-22T08:59:24.934Z,15.13
2019-01-22T09:01:56.875Z,18.10
2019-01-22T09:04:44.705Z,18.03
2019-01-22T09:07:16.328Z,18.13
2019-01-22T09:10:08.777Z,18.77
2019-01-22T09:12:46.259Z,17.87
2019-01-22T09:15:40.204Z,18.83
2019-01-22T09:18:26.754Z,17.07
2019-01-22T09:21:04.453Z,16.77
2019-01-22T09:23:50.661Z,17.87
2019-01-22T09:26:37.406Z,16.77
2019-01-22T09:29:14.518Z,15.60
2019-01-22T09:31:48.678Z,17.87
2019-01-22T09:34:32.326Z,15.13
2019-01-22T09:37:10.078Z,17.70
2019-01-22T09:39:38.630Z,16.70
2019-01-22T09:42:07.266Z,17.13
2019-01-22T09:44:35.815Z,17.50
2019-01-22T09:47:04.450Z,16.60
2019-01-22T09:49:32.995Z,15.67
2019-01-22T09:52:01.639Z,16.57
2019-01-22T09:54:30.482Z,16.40
2019-01-22T09:56:59.050Z,19.10
2019-01-22T09:59:27.667Z,15.37
2019-01-22T10:01:56.366Z,15.37
2019-01-22T10:04:24.908Z,18.00
2019-01-22T10:06:53.473Z,16.47
2019-01-22T10:09:22.026Z,15.97
2019-01-22T10:11:50.622Z,16.10
2019-01-22T10:14:19.148Z,15.83
2019-01-22T10:16:47.738Z,17.00
2019-01-22T10:19:16.346Z,18.20
2019-01-22T10:21:44.923Z,17.97
2019-01-22T10:24:13.466Z,15.70
2019-01-22T10:26:42.030Z,15.50
2019-01-22T10:29:10.583Z,15.13
2019-01-22T10:31:39.150Z,18.43
2019-01-22T10:34:07.697Z,16.57
2019-01-22T10:36:36.271Z,18.27
2019-01-22T10:39:06.754Z,19.20
2019-01-22T10:41:35.326Z,16.20
2019-01-22T10:44:04.006Z,14.93
2019-01-22T10:46:32.577Z,17.80
2019-01-22T10:49:01.126Z,16.60
2019-01-22T10:51:29.711Z,16.90
2019-01-22T10:53:58.191Z,15.20
2019-01-22T10:56:26.738Z,16.00
2019-01-22T10:58:55.310Z,16.60
2019-01-22T11:01:23.982Z,14.43
2019-01-22T11:03:52.532Z,16.77
2019-01-22T11:06:21.078Z,15.07
2019-01-22T11:08:49.587Z,16.90
2019-01-22T11:11:18.202Z,16.17
2019-01-22T11:13:46.775Z,16.53
2019-01-22T11:16:15.322Z,16.77
2019-01-22T11:18:43.897Z,15.60
2019-01-22T11:21:12.435Z,18.50
2019-01-22T11:23:40.998Z,16.27
2019-01-22T11:26:09.462Z,16.93
2019-01-22T11:28:38.034Z,16.87
2019-01-22T11:31:06.643Z,15.27
2019-01-22T11:33:35.209Z,15.90
2019-01-22T11:36:03.818Z,14.43
2019-01-22T11:38:32.379Z,16.23
2019-01-22T11:41:00.927Z,16.30
2019-01-22T11:43:29.490Z,16.73
2019-01-22T11:45:58.033Z,17.40
2019-01-22T11:48:26.599Z,18.03
2019-01-22T11:50:55.143Z,17.90
2019-01-22T11:53:23.714Z,17.63
2019-01-22T11:55:52.259Z,17.23
2019-01-22T11:58:20.818Z,17.30
2019-01-22T12:00:51.001Z,15.80
2019-01-22T12:03:19.566Z,20.13
2019-01-22T12:05:48.107Z,16.90
2019-01-22T12:08:16.678Z,17.30
2019-01-22T12:10:45.221Z,17.57
2019-01-22T12:13:13.786Z,16.80
2019-01-22T12:15:42.333Z,16.93
2019-01-22T12:18:10.909Z,15.50
2019-01-22T12:20:41.678Z,18.63
2019-01-22T12:23:10.321Z,20.03
2019-01-22T12:25:38.870Z,17.13
2019-01-22T12:28:07.510Z,18.23
2019-01-22T12:30:37.698Z,18.73
2019-01-22T12:33:06.724Z,17.50
2019-01-22T12:35:35.409Z,17.50
2019-01-22T12:38:04.617Z,18.60
2019-01-22T12:40:33.322Z,18.07
2019-01-22T12:43:01.879Z,20.60
2019-01-22T12:45:35.562Z,18.80
2019-01-22T12:48:04.982Z,18.93
2019-01-22T12:50:33.886Z,16.33
2019-01-22T12:53:02.435Z,18.67
2019-01-22T12:55:31.000Z,16.40
2019-01-22T12:57:59.559Z,19.83
2019-01-22T13:00:33.453Z,19.43
2019-01-22T13:03:02.168Z,20.90
2019-01-22T13:05:48.810Z,19.47
2019-01-22T13:08:17.350Z,21.47
2019-01-22T13:10:45.914Z,20.97
2019-01-22T13:13:14.521Z,18.27
2019-01-22T13:15:43.146Z,20.70
2019-01-22T13:18:11.757Z,19.83
2019-01-22T13:20:40.767Z,20.47
2019-01-22T13:23:09.373Z,21.03
2019-01-22T13:25:37.938Z,20.50
2019-01-22T13:28:06.611Z,20.83
2019-01-22T13:30:35.242Z,19.50
2019-01-22T13:33:03.842Z,21.23
2019-01-22T13:35:32.418Z,21.03
2019-01-22T13:38:00.964Z,22.37
2019-01-22T13:40:29.542Z,22.20
2019-01-22T13:42:58.167Z,19.20
2019-01-22T13:45:35.429Z,18.73
2019-01-22T13:48:06.814Z,20.57
2019-01-22T13:50:35.865Z,18.67
2019-01-22T13:53:04.812Z,22.37
2019-01-22T13:55:35.666Z,21.13
2019-01-22T13:58:05.758Z,23.17
2019-01-22T14:00:34.697Z,22.17
2019-01-22T14:03:03.310Z,22.30
2019-01-22T14:05:31.873Z,22.87
2019-01-22T14:08:00.937Z,20.00
2019-01-22T14:10:29.555Z,20.23
2019-01-22T14:12:58.108Z,22.53
2019-01-22T14:15:32.627Z,20.17
2019-01-22T14:18:01.234Z,22.33
2019-01-22T14:20:30.341Z,22.60
2019-01-22T14:22:58.832Z,21.70
2019-01-22T14:25:27.398Z,23.57
2019-01-22T14:27:56.012Z,23.83
2019-01-22T14:30:32.846Z,22.70
2019-01-22T14:33:01.390Z,20.50
2019-01-22T14:35:29.968Z,22.67
2019-01-22T14:37:58.677Z,22.80
2019-01-22T14:40:27.246Z,20.87
2019-01-22T14:42:55.790Z,21.10
2019-01-22T14:45:24.733Z,22.90
2019-01-22T14:47:53.271Z,23.07
2019-01-22T14:50:24.340Z,24.23
2019-01-22T14:52:52.882Z,22.07
2019-01-22T14:55:21.446Z,21.47
2019-01-22T14:57:49.996Z,22.27
2019-01-22T15:00:20.704Z,20.73
2019-01-22T15:02:49.510Z,21.93
2019-01-22T15:05:18.194Z,25.10
2019-01-22T15:07:46.762Z,24.27
2019-01-22T15:10:17.241Z,20.20
2019-01-22T15:12:48.434Z,20.20
2019-01-22T15:15:18.141Z,23.80
2019-01-22T15:17:46.641Z,22.13
2019-01-22T15:20:20.274Z,24.07
2019-01-22T15:22:48.907Z,23.20
2019-01-22T15:25:17.447Z,20.40
2019-01-22T15:27:45.945Z,20.40
2019-01-22T15:30:17.500Z,20.87
2019-01-22T15:32:46.070Z,21.23
2019-01-22T15:35:14.619Z,22.27
2019-01-22T15:37:43.258Z,20.60
2019-01-22T15:40:26.394Z,21.93
2019-01-22T15:42:54.950Z,19.80
2019-01-22T15:45:24.238Z,18.83
2019-01-22T15:47:52.985Z,20.80
2019-01-22T15:50:22.861Z,20.40
2019-01-22T15:52:51.434Z,20.37
2019-01-22T15:55:22.841Z,20.43
2019-01-22T15:57:51.411Z,22.40
2019-01-22T16:00:24.953Z,24.00
2019-01-22T16:02:53.605Z,22.03
2019-01-22T16:05:22.217Z,22.27
2019-01-22T16:07:50.782Z,19.40
2019-01-22T16:10:19.470Z,20.70
2019-01-22T16:12:48.057Z,21.23
2019-01-22T16:15:18.730Z,21.53
2019-01-22T16:17:47.472Z,22.50
2019-01-22T16:20:20.446Z,21.93
2019-01-22T16:22:49.145Z,23.07
2019-01-22T16:25:18.065Z,21.93
2019-01-22T16:27:46.710Z,25.07
2019-01-22T16:30:19.845Z,22.70
2019-01-22T16:32:48.480Z,22.00
2019-01-22T16:35:18.666Z,22.43
2019-01-22T16:37:47.369Z,21.47
2019-01-22T16:40:16.889Z,22.97
2019-01-22T16:42:46.294Z,19.57
2019-01-22T16:45:32.086Z,22.23
2019-01-22T16:48:00.655Z,23.70
2019-01-22T16:50:31.441Z,19.53
2019-01-22T16:53:01.841Z,22.00
2019-01-22T16:55:36.242Z,22.00
2019-01-22T16:58:05.149Z,24.23
2019-01-22T17:00:35.467Z,21.27
2019-01-22T17:03:05.373Z,23.27
2019-01-22T17:05:34.186Z,23.20
2019-01-22T17:08:03.319Z,21.10
2019-01-22T17:10:32.583Z,23.90
2019-01-22T17:13:01.579Z,23.10
2019-01-22T17:15:30.146Z,24.10
2019-01-22T17:17:59.060Z,20.70
2019-01-22T17:20:36.725Z,23.73
2019-01-22T17:23:05.438Z,23.83
2019-01-22T17:25:33.990Z,24.17
2019-01-22T17:28:02.706Z,21.40
2019-01-22T17:30:31.491Z,22.63
2019-01-22T17:33:04.856Z,22.10
2019-01-22T17:35:35.136Z,22.00
2019-01-22T17:38:03.766Z,21.40
2019-01-22T17:40:32.386Z,24.13
2019-01-22T17:43:01.213Z,22.53
2019-01-22T17:45:29.862Z,24.20
2019-01-22T17:47:58.341Z,22.63
2019-01-22T17:50:27.217Z,21.17
2019-01-22T17:52:55.762Z,23.70
2019-01-22T17:55:24.335Z,24.60
2019-01-22T17:57:52.881Z,21.90
2019-01-22T18:00:23.089Z,25.83
2019-01-22T18:02:51.706Z,21.97
2019-01-22T18:05:20.919Z,23.40
2019-01-22T18:07:49.461Z,24.43
2019-01-22T18:10:27.835Z,22.00
2019-01-22T18:12:56.381Z,20.63
2019-01-22T18:15:24.942Z,20.03
2019-01-22T18:17:53.498Z,22.87
2019-01-22T18:20:24.002Z,24.87
2019-01-22T18:22:52.574Z,20.13
2019-01-22T18:25:21.118Z,24.00
2019-01-22T18:27:49.734Z,19.63
2019-01-22T18:30:20.934Z,22.93
2019-01-22T18:32:49.488Z,22.93
2019-01-22T18:35:38.030Z,21.80
2019-01-22T18:38:03.090Z,25.87
2019-01-22T18:40:31.659Z,20.70
2019-01-22T18:43:00.214Z,24.97
2019-01-22T18:45:28.783Z,22.73
2019-01-22T18:47:58.021Z,24.60
2019-01-22T18:50:27.285Z,19.80
2019-01-22T18:52:55.762Z,21.97
2019-01-22T18:55:24.572Z,22.77
2019-01-22T18:57:53.121Z,21.37
2019-01-22T19:00:23.529Z,22.83
2019-01-22T19:02:52.515Z,24.67
2019-01-22T19:05:21.630Z,22.83
2019-01-22T19:07:50.313Z,21.53
2019-01-22T19:10:29.317Z,28.20
2019-01-22T19:12:57.797Z,22.80
2019-01-22T19:15:26.447Z,20.37
2019-01-22T19:17:55.049Z,23.03
2019-01-22T19:20:23.621Z,22.47
2019-01-22T19:22:52.167Z,22.30
2019-01-22T19:25:28.363Z,21.13
2019-01-22T19:27:56.906Z,26.33
2019-01-22T19:30:27.949Z,20.47
2019-01-22T19:32:56.461Z,23.90
2019-01-22T19:35:25.032Z,23.77
2019-01-22T19:37:53.578Z,23.03
2019-01-22T19:40:22.215Z,23.33
2019-01-22T19:42:50.766Z,23.43
2019-01-22T19:45:28.459Z,23.10
2019-01-22T19:47:57.215Z,20.33
2019-01-22T19:50:25.854Z,23.50
2019-01-22T19:52:54.405Z,23.13
2019-01-22T19:55:23.041Z,21.50
2019-01-22T19:57:51.515Z,23.37
2019-01-22T20:00:28.575Z,22.63
2019-01-22T20:02:57.183Z,22.67
2019-01-22T20:05:25.894Z,22.03
2019-01-22T20:07:54.512Z,23.40
2019-01-22T20:10:23.091Z,21.07
2019-01-22T20:12:51.706Z,21.60
2019-01-22T20:15:22.019Z,22.87
2019-01-22T20:17:50.565Z,22.67
2019-01-22T20:20:19.948Z,24.80
2019-01-22T20:22:48.790Z,21.53
2019-01-22T20:25:17.880Z,19.77
2019-01-22T20:27:48.203Z,23.30
2019-01-22T20:30:26.638Z,22.57
2019-01-22T20:32:56.170Z,22.70
2019-01-22T20:35:24.779Z,30.17
2019-01-22T20:37:53.278Z,23.33
2019-01-22T20:40:21.836Z,21.73
2019-01-22T20:42:50.405Z,20.57
2019-01-22T20:45:24.411Z,22.73
2019-01-22T20:47:52.983Z,25.57
2019-01-22T20:50:21.541Z,21.97
2019-01-22T20:52:50.112Z,22.53
2019-01-22T20:55:22.945Z,22.13
2019-01-22T20:57:54.999Z,22.80
2019-01-22T21:00:23.259Z,21.87
2019-01-22T21:02:52.065Z,23.33
2019-01-22T21:05:22.450Z,22.57
2019-01-22T21:07:51.286Z,21.20
2019-01-22T21:10:22.478Z,23.67
2019-01-22T21:12:51.119Z,24.20
2019-01-22T21:15:19.670Z,19.93
2019-01-22T21:17:49.175Z,24.37
2019-01-22T21:20:18.662Z,18.97
2019-01-22T21:22:47.349Z,21.80
2019-01-22T21:25:23.479Z,23.00
2019-01-22T21:27:52.218Z,22.93
2019-01-22T21:30:32.602Z,21.07
2019-01-22T21:33:01.450Z,22.80
2019-01-22T21:35:29.992Z,26.53
2019-01-22T21:37:58.612Z,21.27
2019-01-22T21:40:27.311Z,21.30
2019-01-22T21:42:55.955Z,21.37
2019-01-22T21:45:26.646Z,21.30
2019-01-22T21:47:55.216Z,23.10
2019-01-22T21:50:23.765Z,21.20
2019-01-22T21:52:52.334Z,22.80
2019-01-22T21:55:22.628Z,22.90
2019-01-22T21:57:51.189Z,23.50
2019-01-22T22:00:21.702Z,21.60
2019-01-22T22:02:50.279Z,20.90
2019-01-22T22:05:21.158Z,23.37
2019-01-22T22:07:49.686Z,23.30
2019-01-22T22:10:19.695Z,21.10
2019-01-22T22:12:48.334Z,20.53
2019-01-22T22:15:18.923Z,20.97
2019-01-22T22:17:47.490Z,21.03
2019-01-22T22:20:16.778Z,22.93
2019-01-22T22:22:45.423Z,22.00
2019-01-22T22:25:15.906Z,21.50
2019-01-22T22:27:44.473Z,24.27
2019-01-22T22:30:21.603Z,25.03
2019-01-22T22:32:50.179Z,25.77
2019-01-22T22:35:18.727Z,20.70
2019-01-22T22:37:47.293Z,17.90
2019-01-22T22:40:17.809Z,24.07
2019-01-22T22:42:46.387Z,22.03
2019-01-22T22:45:19.742Z,22.13
2019-01-22T22:47:48.311Z,19.57
2019-01-22T22:50:19.463Z,20.57
2019-01-22T22:52:48.102Z,19.30
2019-01-22T22:55:16.719Z,20.60
2019-01-22T22:57:45.289Z,18.93
2019-01-22T23:00:32.662Z,19.50
2019-01-22T23:03:02.445Z,20.20
2019-01-22T23:05:31.234Z,22.80
2019-01-22T23:07:59.806Z,19.23
2019-01-22T23:10:28.586Z,19.97
2019-01-22T23:12:57.156Z,20.60
2019-01-22T23:15:25.707Z,19.77
2019-01-22T23:17:54.282Z,18.97
2019-01-22T23:20:22.962Z,17.63
2019-01-22T23:22:51.541Z,19.07
2019-01-22T23:25:20.086Z,19.93
2019-01-22T23:27:48.656Z,21.97
2019-01-22T23:30:17.580Z,20.07
2019-01-22T23:32:46.197Z,19.30
2019-01-22T23:35:14.994Z,19.20
2019-01-22T23:37:43.477Z,20.53
2019-01-22T23:40:14.982Z,20.17
2019-01-22T23:42:43.526Z,21.10
2019-01-22T23:45:13.804Z,17.30
2019-01-22T23:47:42.310Z,21.87
2019-01-22T23:50:15.655Z,22.37
2019-01-22T23:52:44.212Z,21.40
2019-01-22T23:55:13.014Z,19.87
2019-01-22T23:57:41.561Z,17.50
